< Typhoon 200418 2004 Season Typhoon 200420 >
Typhoon 200419 (SARIKA)
General InformationTrack Information on Google MapsDetailed Wind InformationAccess Analytics MapList of All Images || NewsDisaster Info.WeblogTrackbackTyphoon FrontResourceGoogle EarthGE AnimationAtom FeedGeoJSON
Detalied Best Track (Time Zone = UTC)
Year Month Day Hour Lat. Long. Pressure (hPa) Wind (kt) Class Image Chart
2004 9 3 18 14.0 155.6 1008 0 2 Image Chart
2004 9 4 00 15.0 153.9 1008 0 2 Image Chart
2004 9 4 06 15.9 152.8 1004 0 2 Image Chart
2004 9 4 12 16.5 151.6 1004 0 2 Image Chart
2004 9 4 18 16.8 150.2 1000 35 3 Image Chart
2004 9 5 00 17.4 148.7 990 45 3 Image Chart
2004 9 5 06 18.2 147.3 985 50 4 Image Chart
2004 9 5 12 18.4 145.8 980 55 4 Image Chart
2004 9 5 18 19.0 144.2 980 55 4 Image Chart
2004 9 6 00 19.3 142.7 985 50 4 Image Chart
2004 9 6 06 19.5 141.1 985 50 4 Image Chart
2004 9 6 12 19.8 140.0 985 50 4 Image Chart
2004 9 6 18 20.6 139.0 985 50 4 Image Chart
2004 9 7 00 21.8 138.7 985 45 3 Image Chart
2004 9 7 06 23.0 138.0 998 0 2 Image Chart
2004 9 7 12 23.7 138.1 998 0 2 Image Chart
2004 9 7 18 24.6 137.8 1000 0 2 Image Chart
2004 9 8 00 26.0 137.8 1004 0 2 Image Chart
2004 9 8 06 27.1 137.5 1008 0 2 Image Chart
2004 9 8 12 28.2 137.1 1010 0 2 Image Chart
2004 9 8 18 29.6 137.0 1010 0 2 Image Chart
2004 9 9 00 30.9 137.3 1012 0 2 Image Chart
Japan Meteorological Agency Best Track Data | Correction Date : 2006-01-18
< Typhoon 200418 2004 Season Typhoon 200420 >

Help